Hartshorne, OK (74547)

10:21 PM CDT on October 20, 2019 (GMT -0500)
Elm Point | | Change Station
Active Advisory: Tornado Watch

Elev 659 ft 35.00 °N, 95.60 °W | Updated 5 minutes ago

Partly Cloudy
Partly Cloudy
73.8 °F
Feels Like 75 °F
N
3
Wind Variable Wind from South
Gusts 13.0 mph

Today
High -- | Low -- °F
--% Chance of Precip.
Yesterday
High -- | Low -- °F
Precip. -- in
Pressure 29.51 in
Visibility 10.0 miles
Clouds Few 4900 ft
Heat Index 75 °F
Dew Point 66 °F
Humidity 77%
Rainfall 0.01 in
Snow Depth Not available.
7:32 AM 6:41 PM
Waning Gibbous, 54% visible
METAR KMLC 210253Z AUTO 17006G17KT 10SM -RA FEW049 24/17 A2953 RMK AO2 RAB49 SLP993 P0000 60000 T02390172 58035
Pressure 29.51 in
Visibility 10.0 miles
Clouds Few 4900 ft
Heat Index 75 °F
Dew Point 66 °F
Humidity 77%
Rainfall 0.01 in
Snow Depth Not available.
7:32 AM 6:41 PM
Waning Gibbous, 54% visible
METAR KMLC 210253Z AUTO 17006G17KT 10SM -RA FEW049 24/17 A2953 RMK AO2 RAB49 SLP993 P0000 60000 T02390172 58035

Get Your Daily Forecast Email!

Thanks for signing up!

Be on the lookout for a verification email in your inbox.

You'll start receiving severe weather alerts in your inbox..

×

10-Day Weather Forecast

Almanac

Astronomy

Oct. 20, 2019 Rise Set
Actual Time
Civil Twilight
Nautical Twilight
Astronomical Twilight
Moon
Length of Visible Light
Length of Day
Tomorrow will be .
, % of the Moon is Illuminated

Today's Extremes

State Highs State Lows

Community

WunderPhotos

Category 6

Welcome to Category 6. This is the collective home for Weather Underground's featured writeups by Dr. Jeff Masters (right), Bob Henson (left), Chris Burt, and other regular contributors.

Nearby

Air Quality

  Air Quality AQ Index Pollutant
Not available.

Snow Depth

Station Depth Elevation

Earthquake Activity

City Distance Mag. Time & Date
Minimum magnitude displayed is 2.5.

Coastal Water Temperatures

Place Temperature

Stations

Nearby Weather Stations

Station Location Temp. Windchill Dew Point Humidity Wind Precip. Elev Updated Type
                   

Watches & Warnings

Tornado Watch
Issued: 9:53 PM CDT Oct. 20, 2019 – National Weather Service

Tornado Watch 677 remains in effect until 300 am CDT for the
following locations

OK
. Oklahoma counties included are

Adair Atoka Bryan
Carter Cherokee Choctaw
Cleveland Coal Creek
Delaware Garvin Haskell
Hughes Jefferson Johnston
Latimer Le Flore Love
McClain McIntosh Marshall
Mayes Murray Muskogee
Okfuskee Okmulgee Pittsburg
Pontotoc Pottawatomie Pushmataha
Rogers Seminole Sequoyah
Stephens Tulsa Wagoner